Time;durP1;ratioP1;P1;durP2;ratioP2;P2;SDS_P1;SDS_P2;PMS_P1;PMS_P2;Temp;Humidity;BMP_temperature;BMP_pressure;BME280_temperature;BME280_humidity;BME280_pressure;Samples;Min_cycle;Max_cycle;Signal;HPM_P1;HPM_P2
2022/02/08 00:00:51;;;;;;;35.10;4.90;;;8.90;99.90;;;;;;5070194;28;20194;-69
2022/02/08 00:03:19;;;;;;;34.78;3.90;;;8.90;99.90;;;;;;5051931;28;20182;-69
2022/02/08 00:05:54;;;;;;;32.92;4.00;;;8.90;99.90;;;;;;5050900;28;20218;-69
2022/02/08 00:08:20;;;;;;;29.77;3.95;;;8.90;99.90;;;;;;5068989;28;20712;-70
2022/02/08 00:10:46;;;;;;;27.50;3.63;;;8.90;99.90;;;;;;5068828;28;20179;-70
2022/02/08 00:13:11;;;;;;;31.33;3.85;;;9.00;99.90;;;;;;5068878;28;20224;-70
2022/02/08 00:15:37;;;;;;;28.38;4.80;;;8.90;99.90;;;;;;5069595;28;20193;-70
2022/02/08 00:18:03;;;;;;;31.98;3.97;;;8.90;99.90;;;;;;5070288;28;20213;-70
2022/02/08 00:20:28;;;;;;;30.58;4.25;;;9.00;99.90;;;;;;5067569;28;20286;-70
2022/02/08 00:22:54;;;;;;;31.63;3.85;;;9.00;99.90;;;;;;5069448;28;20198;-71
2022/02/08 00:25:20;;;;;;;32.70;4.40;;;9.00;99.90;;;;;;5032763;28;20657;-70
2022/02/08 00:27:45;;;;;;;32.58;3.90;;;9.00;99.90;;;;;;5068439;28;20182;-70
2022/02/08 00:30:11;;;;;;;27.70;3.40;;;9.00;99.90;;;;;;5067409;28;20296;-70
2022/02/08 00:32:37;;;;;;;34.55;4.10;;;9.00;99.90;;;;;;5051928;28;20182;-70
2022/02/08 00:35:03;;;;;;;39.33;3.90;;;9.00;99.90;;;;;;5066017;28;20198;-70
2022/02/08 00:37:28;;;;;;;35.20;4.40;;;9.00;99.90;;;;;;5069454;28;20214;-71
2022/02/08 00:39:54;;;;;;;36.13;4.82;;;9.00;99.90;;;;;;5068166;28;20218;-69
2022/02/08 00:42:22;;;;;;;36.40;3.90;;;9.00;99.90;;;;;;5051161;28;20221;-70
2022/02/08 00:45:00;;;;;;;38.17;4.35;;;9.00;99.90;;;;;;5067013;28;20218;-70
2022/02/08 00:47:37;;;;;;;25.13;3.38;;;9.00;99.90;;;;;;5068345;28;20875;-70
2022/02/08 00:50:08;;;;;;;26.33;3.85;;;9.00;99.90;;;;;;5050302;28;20722;-71
2022/02/08 00:52:36;;;;;;;33.63;4.15;;;9.00;99.90;;;;;;5050220;28;20252;-70
2022/02/08 00:55:05;;;;;;;27.17;4.25;;;8.90;99.90;;;;;;5066662;28;20190;-70
2022/02/08 00:57:31;;;;;;;22.05;4.07;;;9.00;99.90;;;;;;5083189;28;20205;-70
2022/02/08 00:59:57;;;;;;;33.50;4.53;;;8.90;99.90;;;;;;5033709;28;20183;-69
2022/02/08 01:02:22;;;;;;;39.53;4.18;;;9.00;99.90;;;;;;5049369;28;20193;-70
2022/02/08 01:04:55;;;;;;;26.50;4.00;;;9.00;99.90;;;;;;5067371;28;20543;-70
2022/02/08 01:07:22;;;;;;;35.15;4.22;;;9.00;99.90;;;;;;5067236;28;20205;-71
2022/02/08 01:09:54;;;;;;;30.95;4.32;;;9.00;99.90;;;;;;5067306;28;20217;-70
2022/02/08 01:12:21;;;;;;;27.30;4.53;;;9.00;99.90;;;;;;5047601;28;20612;-70
2022/02/08 01:14:50;;;;;;;32.58;3.97;;;9.00;99.90;;;;;;5050024;28;20662;-71
2022/02/08 01:17:16;;;;;;;29.38;4.15;;;9.00;99.90;;;;;;5050896;28;20183;-70
2022/02/08 01:19:52;;;;;;;32.15;4.70;;;9.00;99.90;;;;;;5050239;28;20175;-70
2022/02/08 01:22:17;;;;;;;26.10;3.90;;;9.00;99.90;;;;;;5050500;28;20194;-69
2022/02/08 01:24:45;;;;;;;29.20;4.13;;;9.00;99.90;;;;;;5049853;28;20239;-69
2022/02/08 01:27:12;;;;;;;28.75;4.22;;;9.10;99.90;;;;;;5050592;28;20324;-68
2022/02/08 01:29:54;;;;;;;31.55;4.72;;;9.10;99.90;;;;;;5050372;28;20255;-70
2022/02/08 01:38:04;;;;;;;23.52;3.95;;;9.10;99.90;;;;;;5050962;28;20577;-70
2022/02/08 01:45:47;;;;;;;32.40;4.43;;;9.20;99.90;;;;;;5048932;28;20256;-69
2022/02/08 01:48:41;;;;;;;26.65;4.20;;;9.20;99.90;;;;;;5050079;28;20190;-69
2022/02/08 01:51:02;;;;;;;39.42;4.78;;;9.20;99.90;;;;;;5050178;28;20248;-70
2022/02/08 01:53:27;;;;;;;28.63;5.00;;;9.20;99.90;;;;;;5048817;28;20191;-70
2022/02/08 01:55:54;;;;;;;27.77;4.30;;;9.20;99.90;;;;;;5068954;28;20186;-71
2022/02/08 01:58:24;;;;;;;31.77;4.72;;;9.20;99.90;;;;;;5067953;28;20217;-71
2022/02/08 02:00:55;;;;;;;30.50;5.03;;;9.30;99.90;;;;;;5049197;28;20187;-70
2022/02/08 02:03:21;;;;;;;27.20;4.60;;;9.30;99.90;;;;;;5067930;28;20677;-71
2022/02/08 02:05:50;;;;;;;27.02;3.97;;;9.30;99.90;;;;;;5050665;28;20222;-70
2022/02/08 02:08:17;;;;;;;28.27;5.20;;;9.30;99.90;;;;;;5053070;28;20214;-71
2022/02/08 02:10:44;;;;;;;26.30;4.43;;;9.30;99.90;;;;;;5087572;28;20209;-71
2022/02/08 02:13:24;;;;;;;41.53;6.13;;;9.30;99.90;;;;;;5054002;28;20181;-71
2022/02/08 02:15:51;;;;;;;22.17;4.03;;;9.30;99.90;;;;;;5070588;28;20174;-71
2022/02/08 02:18:16;;;;;;;42.25;5.00;;;9.30;99.90;;;;;;5070557;28;20840;-72
2022/02/08 02:20:42;;;;;;;31.48;4.55;;;9.30;99.90;;;;;;5052847;28;20190;-71
2022/02/08 02:23:08;;;;;;;34.38;4.80;;;9.30;99.90;;;;;;5072137;28;20191;-70
2022/02/08 02:25:34;;;;;;;33.30;4.57;;;9.30;99.90;;;;;;5087361;28;20190;-72
2022/02/08 02:28:04;;;;;;;33.55;5.00;;;9.40;99.90;;;;;;5053314;28;20187;-71
2022/02/08 02:30:31;;;;;;;33.15;4.93;;;9.30;99.90;;;;;;5052800;28;20579;-71
2022/02/08 02:33:01;;;;;;;35.70;4.57;;;9.40;99.90;;;;;;5068970;28;20273;-71
2022/02/08 02:35:29;;;;;;;35.53;5.20;;;9.40;99.90;;;;;;5082900;28;20244;-70
2022/02/08 02:37:57;;;;;;;37.47;4.97;;;9.30;99.90;;;;;;5035012;28;20714;-71
2022/02/08 02:40:26;;;;;;;35.15;5.13;;;9.30;99.90;;;;;;5052240;28;20674;-71
2022/02/08 02:42:53;;;;;;;34.42;4.80;;;9.30;99.90;;;;;;5036653;28;20203;-71
2022/02/08 02:45:21;;;;;;;32.42;5.20;;;9.30;99.90;;;;;;5052882;28;20273;-71
2022/02/08 02:47:50;;;;;;;24.58;3.90;;;9.40;99.90;;;;;;5053574;28;20199;-71
2022/02/08 02:50:16;;;;;;;29.77;5.30;;;9.30;99.90;;;;;;5051581;28;20666;-71
2022/02/08 02:52:44;;;;;;;34.47;5.00;;;9.30;99.90;;;;;;5050953;28;20171;-71
2022/02/08 02:55:13;;;;;;;42.28;5.00;;;9.30;99.90;;;;;;5051872;28;20223;-70
2022/02/08 02:57:40;;;;;;;37.22;5.07;;;9.30;99.90;;;;;;5070471;28;21003;-70
2022/02/08 03:00:13;;;;;;;39.60;5.40;;;9.30;99.90;;;;;;5052759;28;20178;-72
2022/02/08 03:02:47;;;;;;;33.40;4.82;;;9.30;99.90;;;;;;5038619;28;20216;-71
2022/02/08 03:18:45;;;;;;;29.77;4.70;;;9.30;99.90;;;;;;5050654;28;20190;-70
2022/02/08 03:21:12;;;;;;;37.10;5.68;;;9.30;99.90;;;;;;5036324;28;20598;-70
2022/02/08 03:23:38;;;;;;;33.63;4.78;;;9.30;99.90;;;;;;5069750;28;20178;-70
2022/02/08 03:26:05;;;;;;;34.95;5.07;;;9.30;99.90;;;;;;5052725;28;20255;-71
2022/02/08 03:28:36;;;;;;;20.52;4.50;;;9.30;99.90;;;;;;5051912;28;20220;-71
2022/02/08 03:31:05;;;;;;;32.60;5.25;;;9.30;99.90;;;;;;5051404;28;20179;-72
2022/02/08 03:33:33;;;;;;;41.83;5.20;;;9.30;99.90;;;;;;5050878;28;20209;-72
2022/02/08 03:36:01;;;;;;;35.42;5.60;;;9.30;99.90;;;;;;5050368;28;20726;-71
2022/02/08 03:38:36;;;;;;;32.47;5.18;;;9.70;99.90;;;;;;5050332;28;20438;-72
2022/02/08 03:41:07;;;;;;;34.60;5.72;;;10.10;99.90;;;;;;5051214;28;20492;-72
2022/02/08 03:43:37;;;;;;;31.93;5.03;;;10.30;99.90;;;;;;5050328;28;20427;-72
2022/02/08 03:46:10;;;;;;;37.28;5.65;;;10.40;99.90;;;;;;5050854;28;20428;-71
2022/02/08 03:48:38;;;;;;;34.88;5.63;;;10.50;99.90;;;;;;5033061;28;20422;-71
2022/02/08 03:51:09;;;;;;;36.55;5.57;;;10.60;99.90;;;;;;5051095;28;20442;-71
2022/02/08 03:53:43;;;;;;;32.13;4.60;;;10.60;99.90;;;;;;5035884;28;20415;-71
2022/02/08 03:56:12;;;;;;;37.25;5.47;;;10.70;99.90;;;;;;5051055;28;20400;-71
2022/02/08 03:58:38;;;;;;;37.87;5.50;;;10.70;99.90;;;;;;5050337;28;20923;-71
2022/02/08 04:03:50;;;;;;;33.10;5.18;;;10.70;99.90;;;;;;5067524;28;20748;-71
2022/02/08 04:06:16;;;;;;;30.90;4.95;;;10.70;99.90;;;;;;5067537;28;20418;-71
2022/02/08 04:08:42;;;;;;;32.97;5.10;;;10.80;99.90;;;;;;5065629;28;20400;-71
2022/02/08 04:11:08;;;;;;;33.23;5.00;;;10.70;99.90;;;;;;5051170;28;20387;-71
2022/02/08 04:13:53;;;;;;;33.90;4.95;;;10.80;99.90;;;;;;5048912;28;20407;-70
2022/02/08 04:16:27;;;;;;;31.63;4.50;;;10.80;99.90;;;;;;5051030;28;20884;-71
2022/02/08 04:33:20;;;;;;;30.25;4.40;;;10.90;99.90;;;;;;5067493;28;20769;-70
2022/02/08 04:36:06;;;;;;;31.63;4.67;;;10.90;99.90;;;;;;5063102;28;20400;-70
2022/02/08 04:38:43;;;;;;;26.30;4.60;;;10.90;99.90;;;;;;5066572;28;20420;-69
2022/02/08 04:41:14;;;;;;;27.17;4.03;;;10.90;99.90;;;;;;5047922;28;20411;-69
2022/02/08 04:51:17;;;;;;;30.20;4.40;;;10.90;99.90;;;;;;5068196;28;20395;-69
2022/02/08 04:53:51;;;;;;;36.20;5.15;;;10.90;99.90;;;;;;5066664;28;20991;-70
2022/02/08 04:56:38;;;;;;;29.15;4.38;;;10.90;99.90;;;;;;5067714;28;20399;-69
2022/02/08 05:27:01;;;;;;;29.27;4.93;;;10.80;99.90;;;;;;5065994;28;20824;-70
2022/02/08 05:30:03;;;;;;;31.70;4.38;;;10.80;99.90;;;;;;5066547;28;20506;-69
2022/02/08 05:43:27;;;;;;;28.60;4.27;;;10.90;99.90;;;;;;5009101;28;20401;-69
2022/02/08 05:48:26;;;;;;;30.27;4.18;;;10.80;99.90;;;;;;5070351;28;20431;-70
2022/02/08 05:51:55;;;;;;;29.17;4.40;;;10.90;99.90;;;;;;5069845;28;20474;-69
2022/02/08 05:53:45;;;;;;;28.45;4.45;;;10.90;99.90;;;;;;5064709;28;20447;-69
2022/02/08 05:56:15;;;;;;;30.55;4.30;;;10.90;99.90;;;;;;5069067;28;20407;-69
2022/02/08 05:58:43;;;;;;;26.95;3.50;;;10.90;99.90;;;;;;5065382;28;20420;-69
2022/02/08 06:01:09;;;;;;;23.25;3.90;;;10.90;99.90;;;;;;5063540;28;20910;-70
2022/02/08 06:03:53;;;;;;;20.52;3.60;;;10.90;99.90;;;;;;5050253;28;20399;-70
2022/02/08 06:06:22;;;;;;;22.70;3.83;;;10.90;99.90;;;;;;5068557;28;20516;-70
2022/02/08 06:08:47;;;;;;;25.67;3.88;;;10.90;99.90;;;;;;5061582;28;20413;-69
2022/02/08 06:11:15;;;;;;;25.93;3.90;;;10.90;99.90;;;;;;5068937;28;20945;-68
2022/02/08 06:13:42;;;;;;;24.77;3.80;;;10.80;99.90;;;;;;5067962;28;20419;-69
2022/02/08 06:16:16;;;;;;;26.92;4.00;;;10.80;99.90;;;;;;5051610;28;21036;-69
2022/02/08 06:18:42;;;;;;;24.85;3.70;;;10.70;99.90;;;;;;5050820;28;20425;-69
2022/02/08 06:21:07;;;;;;;28.55;3.75;;;10.70;99.90;;;;;;5068687;28;20940;-70
2022/02/08 06:23:33;;;;;;;25.58;3.85;;;10.70;99.90;;;;;;5032684;28;20419;-69
2022/02/08 06:25:59;;;;;;;27.23;4.18;;;10.70;99.90;;;;;;5051348;28;20399;-69
2022/02/08 06:28:24;;;;;;;24.63;4.32;;;10.70;99.90;;;;;;5067592;28;20400;-69
2022/02/08 06:30:51;;;;;;;25.67;4.10;;;10.80;99.90;;;;;;5069064;28;20419;-70
2022/02/08 06:33:17;;;;;;;29.95;4.40;;;10.80;99.90;;;;;;5068455;28;20507;-69
2022/02/08 06:35:44;;;;;;;32.45;4.43;;;10.70;99.90;;;;;;5049782;28;20756;-69
2022/02/08 06:38:13;;;;;;;25.85;4.50;;;10.80;99.90;;;;;;5064647;28;20419;-69
2022/02/08 06:40:41;;;;;;;26.38;4.25;;;10.80;99.90;;;;;;5065368;28;20407;-69
2022/02/08 06:43:07;;;;;;;24.33;4.47;;;10.80;99.90;;;;;;5048150;28;20411;-69
2022/02/08 06:45:33;;;;;;;23.70;4.15;;;10.80;99.90;;;;;;5065256;28;20878;-69
2022/02/08 06:48:00;;;;;;;24.05;3.65;;;10.80;99.90;;;;;;5066452;28;20514;-69
2022/02/08 06:50:26;;;;;;;26.27;3.90;;;10.80;99.90;;;;;;5065706;28;20423;-70
2022/02/08 06:52:52;;;;;;;26.90;3.95;;;10.70;99.90;;;;;;5065280;28;20927;-71
2022/02/08 06:55:18;;;;;;;19.90;3.60;;;10.70;99.90;;;;;;5064918;28;20433;-69
2022/02/08 07:00:40;;;;;;;20.38;3.70;;;10.80;99.90;;;;;;5065620;28;20442;-71
2022/02/08 07:03:10;;;;;;;25.45;4.00;;;10.80;99.90;;;;;;5047115;28;20417;-71
2022/02/08 07:05:37;;;;;;;21.40;3.50;;;10.70;99.90;;;;;;5065418;28;20487;-69
2022/02/08 07:08:03;;;;;;;21.60;3.20;;;10.70;99.90;;;;;;5064787;28;21676;-71
2022/02/08 07:10:31;;;;;;;23.20;3.60;;;10.70;99.90;;;;;;5064829;28;20506;-70
2022/02/08 07:12:57;;;;;;;23.80;4.07;;;10.70;99.90;;;;;;5047751;28;20400;-71
2022/02/08 07:15:22;;;;;;;18.87;3.27;;;10.70;99.90;;;;;;5047065;28;20824;-71
2022/02/08 07:17:49;;;;;;;26.38;3.78;;;10.80;99.90;;;;;;5065357;28;20412;-70
2022/02/08 07:20:14;;;;;;;24.63;4.10;;;10.70;99.90;;;;;;5048558;28;20771;-70
2022/02/08 07:22:40;;;;;;;24.73;3.40;;;10.80;99.90;;;;;;5064130;28;20502;-71
2022/02/08 07:25:07;;;;;;;23.58;3.47;;;10.80;99.90;;;;;;5060944;28;20415;-70
2022/02/08 07:27:32;;;;;;;21.90;3.28;;;10.80;99.90;;;;;;5060759;28;20502;-71
2022/02/08 07:29:59;;;;;;;24.10;3.60;;;10.80;99.90;;;;;;5065692;28;20960;-70
2022/02/08 07:32:38;;;;;;;21.75;2.92;;;10.80;99.90;;;;;;5066752;28;20408;-70
2022/02/08 07:43:01;;;;;;;22.30;3.35;;;10.80;99.90;;;;;;5066178;28;20411;-72
2022/02/08 07:45:45;;;;;;;21.88;3.00;;;10.80;99.90;;;;;;5065028;28;20445;-71
2022/02/08 07:48:10;;;;;;;21.05;3.15;;;10.80;99.90;;;;;;5065694;28;20415;-72
2022/02/08 07:50:39;;;;;;;22.70;3.30;;;10.90;99.90;;;;;;5048798;28;20983;-72
2022/02/08 07:53:09;;;;;;;20.45;3.40;;;10.80;99.90;;;;;;5063610;28;20419;-72
2022/02/08 07:55:35;;;;;;;20.73;3.40;;;10.90;99.90;;;;;;5066119;28;20418;-70
2022/02/08 07:58:00;;;;;;;24.55;3.50;;;10.90;99.90;;;;;;5066104;28;20412;-71
2022/02/08 08:00:26;;;;;;;23.83;3.50;;;10.90;99.90;;;;;;5065049;28;20411;-73
2022/02/08 08:02:53;;;;;;;17.85;3.38;;;10.90;99.90;;;;;;5063503;28;20443;-70
2022/02/08 08:05:19;;;;;;;22.08;3.60;;;10.90;99.90;;;;;;5059493;28;21161;-71
2022/02/08 08:07:45;;;;;;;25.63;3.47;;;11.00;99.90;;;;;;5064781;28;20419;-71
2022/02/08 08:10:17;;;;;;;23.55;3.75;;;11.00;99.90;;;;;;5062936;28;20491;-71
2022/02/08 08:12:54;;;;;;;22.35;3.80;;;11.10;99.90;;;;;;5063479;28;20399;-71
2022/02/08 08:20:17;;;;;;;26.13;3.83;;;11.40;99.90;;;;;;5044795;28;20507;-71
2022/02/08 08:22:43;;;;;;;22.75;3.60;;;11.60;99.90;;;;;;5065562;28;20518;-70
2022/02/08 08:25:09;;;;;;;21.30;3.63;;;11.80;99.90;;;;;;5065185;28;20439;-72
2022/02/08 08:27:35;;;;;;;24.48;3.60;;;11.80;99.90;;;;;;5065665;28;20920;-71
2022/02/08 08:30:01;;;;;;;27.33;3.63;;;11.90;99.90;;;;;;5064188;28;20457;-71
2022/02/08 08:32:26;;;;;;;23.50;3.45;;;11.90;99.90;;;;;;5066434;28;20479;-72
2022/02/08 08:34:52;;;;;;;26.87;4.00;;;11.80;99.90;;;;;;5064391;28;20411;-71
2022/02/08 08:37:17;;;;;;;23.35;3.60;;;11.70;99.90;;;;;;5066202;28;20404;-71
2022/02/08 08:39:48;;;;;;;27.00;4.37;;;11.60;99.90;;;;;;5061163;28;20424;-71
2022/02/08 08:52:32;;;;;;;26.33;3.58;;;11.50;99.90;;;;;;5066979;28;20406;-70
2022/02/08 08:54:58;;;;;;;28.58;4.13;;;11.60;99.90;;;;;;5049019;28;20803;-71
2022/02/08 08:57:28;;;;;;;23.83;3.33;;;11.60;99.90;;;;;;5067383;28;20465;-72
2022/02/08 08:59:54;;;;;;;24.03;4.17;;;11.70;99.90;;;;;;5066435;28;20482;-71
2022/02/08 09:02:20;;;;;;;20.58;3.13;;;11.70;99.90;;;;;;5066371;28;20441;-70
2022/02/08 09:04:47;;;;;;;24.83;3.60;;;11.80;99.90;;;;;;5066854;28;20481;-70
2022/02/08 09:07:13;;;;;;;21.25;3.38;;;11.80;99.90;;;;;;5067205;28;20446;-71
2022/02/08 09:09:42;;;;;;;23.17;3.43;;;11.80;99.90;;;;;;5064489;28;20894;-70
2022/02/08 09:12:25;;;;;;;18.23;3.27;;;11.90;99.90;;;;;;5067636;28;20392;-71
2022/02/08 09:15:10;;;;;;;20.38;3.20;;;12.30;99.90;;;;;;5065987;28;20407;-71
2022/02/08 09:30:31;;;;;;;18.88;3.35;;;15.80;92.80;;;;;;5065735;28;20415;-71
2022/02/08 09:32:57;;;;;;;16.33;3.15;;;16.20;92.20;;;;;;5066749;28;20395;-71
2022/02/08 09:35:22;;;;;;;17.95;3.10;;;17.00;90.30;;;;;;5067065;28;20979;-71
2022/02/08 09:37:48;;;;;;;19.37;3.10;;;17.10;86.90;;;;;;5067024;28;20443;-71
2022/02/08 09:40:19;;;;;;;16.63;3.20;;;16.70;87.30;;;;;;5066828;28;20416;-72
2022/02/08 09:42:45;;;;;;;22.85;3.80;;;16.20;89.50;;;;;;5067811;28;20410;-70
2022/02/08 09:45:15;;;;;;;24.73;3.45;;;15.70;90.50;;;;;;5067244;28;20419;-70
2022/02/08 09:47:51;;;;;;;20.13;3.67;;;15.40;91.40;;;;;;5050031;28;20404;-71
2022/02/08 09:50:22;;;;;;;20.48;3.10;;;15.20;91.60;;;;;;5080340;28;20423;-73
2022/02/08 09:52:52;;;;;;;17.02;2.85;;;14.90;92.10;;;;;;5066711;28;20399;-70
2022/02/08 09:55:19;;;;;;;23.10;3.42;;;14.50;92.80;;;;;;5066182;28;20400;-70
2022/02/08 09:57:45;;;;;;;19.50;3.15;;;14.30;93.40;;;;;;5067372;28;20399;-70
2022/02/08 10:00:12;;;;;;;22.60;3.28;;;14.10;93.90;;;;;;5049115;28;20480;-71
2022/02/08 10:02:37;;;;;;;20.73;3.13;;;13.90;94.30;;;;;;5067877;28;20776;-70
2022/02/08 10:05:05;;;;;;;21.67;3.10;;;13.80;94.70;;;;;;5064490;28;20421;-70
2022/02/08 10:07:35;;;;;;;21.00;3.78;;;13.70;95.00;;;;;;5049745;28;20828;-71
2022/02/08 10:10:03;;;;;;;21.50;3.40;;;13.50;95.20;;;;;;5066845;28;20419;-70
2022/02/08 10:13:12;;;;;;;;;;;;;;;;;;;;;
2022/02/08 10:23:51;;;;;;;20.30;2.97;;;13.40;96.20;;;;;;5065514;28;20470;-71
2022/02/08 10:26:28;;;;;;;21.90;3.28;;;13.50;96.00;;;;;;5066047;28;20410;-70
2022/02/08 10:28:58;;;;;;;22.25;3.45;;;13.40;95.90;;;;;;5051051;28;20493;-69
2022/02/08 10:31:58;;;;;;;22.65;3.90;;;13.40;96.00;;;;;;5053878;28;20447;-71
2022/02/08 10:40:08;;;;;;;22.43;3.20;;;14.20;95.60;;;;;;5067779;28;20412;-70
2022/02/08 10:42:35;;;;;;;20.27;3.20;;;14.70;93.40;;;;;;5070176;28;20759;-72
2022/02/08 10:45:02;;;;;;;22.73;3.30;;;14.70;93.20;;;;;;5068984;28;20415;-72
2022/02/08 10:47:52;;;;;;;19.55;3.20;;;14.70;93.10;;;;;;5070137;28;20910;-71
2022/02/08 10:50:18;;;;;;;25.90;3.60;;;15.00;93.10;;;;;;5050829;28;20492;-70
2022/02/08 10:52:44;;;;;;;21.83;3.28;;;15.40;91.70;;;;;;5070765;28;20478;-71
2022/02/08 10:55:36;;;;;;;18.95;3.17;;;15.50;91.10;;;;;;5068687;28;22200;-72
2022/02/08 11:03:07;;;;;;;17.75;3.53;;;15.40;91.10;;;;;;5069030;28;20747;-72
2022/02/08 11:11:06;;;;;;;24.02;3.60;;;15.40;91.10;;;;;;5069729;28;20422;-71
2022/02/08 11:13:46;;;;;;;19.50;3.38;;;15.70;90.80;;;;;;5069286;28;20411;-71
2022/02/08 11:16:19;;;;;;;17.02;3.17;;;16.50;88.70;;;;;;5069807;28;20441;-73
2022/02/08 11:19:25;;;;;;;19.63;3.40;;;17.30;84.30;;;;;;5069255;28;20469;-72
2022/02/08 11:21:58;;;;;;;20.50;3.30;;;18.00;81.30;;;;;;5049826;28;20848;-71
2022/02/08 11:24:38;;;;;;;19.00;3.10;;;18.70;76.60;;;;;;5068011;28;20926;-72
2022/02/08 11:27:11;;;;;;;18.13;3.20;;;19.00;74.30;;;;;;5052505;28;20399;-71
2022/02/08 11:29:47;;;;;;;18.45;3.08;;;19.10;71.90;;;;;;5067979;28;20913;-72
2022/02/08 12:00:11;;;;;;;14.18;2.58;;;19.50;64.00;;;;;;5067313;28;20498;-69
2022/02/08 12:07:43;;;;;;;19.85;3.35;;;18.30;71.20;;;;;;5069429;28;20400;-74
2022/02/08 12:10:21;;;;;;;15.32;3.00;;;18.60;70.50;;;;;;5067829;28;20892;-71
2022/02/08 12:13:11;;;;;;;15.77;2.70;;;18.60;69.30;;;;;;5067916;28;20407;-71
2022/02/08 12:30:26;;;;;;;15.98;2.90;;;16.80;77.80;;;;;;5067017;28;20780;-71
2022/02/08 12:57:40;;;;;;;18.17;3.38;;;19.00;68.60;;;;;;5080988;28;20457;-71
2022/02/08 13:00:19;;;;;;;22.40;3.30;;;19.20;67.40;;;;;;5066831;28;20400;-74
2022/02/08 14:11:16;;;;;;;19.27;3.20;;;15.60;84.40;;;;;;5069490;28;20423;-71
2022/02/08 14:21:52;;;;;;;17.38;3.08;;;15.40;86.30;;;;;;5070812;28;20407;-74
2022/02/08 14:24:32;;;;;;;19.92;3.15;;;15.30;86.60;;;;;;5070296;28;20491;-75
2022/02/08 14:32:36;;;;;;;20.05;3.40;;;15.40;86.90;;;;;;5069135;28;20404;-73
2022/02/08 15:07:53;;;;;;;20.33;2.75;;;13.30;92.10;;;;;;5068488;28;20210;-72
2022/02/08 15:10:23;;;;;;;19.67;2.60;;;13.20;92.30;;;;;;5067533;28;20246;-72
2022/02/08 15:12:55;;;;;;;18.95;2.63;;;13.00;92.50;;;;;;5069503;28;20190;-72
2022/02/08 15:18:07;;;;;;;21.40;3.35;;;12.90;93.10;;;;;;5038680;28;20545;-73
2022/02/08 15:20:33;;;;;;;17.67;2.30;;;12.90;93.30;;;;;;5069446;28;20187;-75
2022/02/08 15:23:02;;;;;;;16.73;2.40;;;12.80;93.30;;;;;;5069191;28;20182;-74
2022/02/08 15:25:29;;;;;;;19.38;2.90;;;12.80;93.40;;;;;;5070147;28;20251;-72
2022/02/08 15:28:01;;;;;;;20.65;2.35;;;12.80;93.60;;;;;;5069005;28;20195;-73
2022/02/08 15:30:28;;;;;;;16.80;2.88;;;12.70;93.70;;;;;;5068718;28;20206;-74
2022/02/08 15:32:54;;;;;;;14.48;2.53;;;12.60;94.00;;;;;;5070483;28;20332;-73
2022/02/08 15:35:19;;;;;;;21.27;2.67;;;12.50;94.10;;;;;;5068944;28;20261;-73
2022/02/08 15:37:45;;;;;;;20.48;3.05;;;12.50;94.30;;;;;;5051986;28;20225;-73
2022/02/08 15:40:13;;;;;;;18.52;2.95;;;12.40;94.50;;;;;;5050204;28;20538;-72
2022/02/08 15:42:41;;;;;;;16.20;2.60;;;12.30;94.60;;;;;;5051956;28;20197;-72
2022/02/08 15:45:17;;;;;;;19.33;2.83;;;12.30;94.70;;;;;;5068834;28;20269;-73
2022/02/08 15:47:42;;;;;;;18.50;2.90;;;12.20;95.00;;;;;;5049689;28;20198;-72
2022/02/08 15:50:15;;;;;;;20.70;3.10;;;12.10;95.10;;;;;;5068901;28;20218;-73
2022/02/08 15:55:16;;;;;;;21.65;3.17;;;12.00;95.50;;;;;;5050529;28;20185;-74
2022/02/08 16:06:07;;;;;;;28.65;3.60;;;12.90;95.60;;;;;;5049533;28;20415;-73
2022/02/08 16:08:37;;;;;;;18.13;3.38;;;13.00;95.60;;;;;;5065220;28;20481;-74
2022/02/08 16:11:30;;;;;;;19.70;2.80;;;13.00;95.50;;;;;;5067750;28;20417;-72
2022/02/08 16:13:59;;;;;;;19.25;3.03;;;13.00;95.60;;;;;;5066319;28;20430;-71
2022/02/08 16:24:45;;;;;;;18.98;2.95;;;13.00;95.90;;;;;;5046624;28;20862;-75
2022/02/08 16:49:03;;;;;;;22.77;2.95;;;12.70;96.20;;;;;;5063517;28;20418;-76
2022/02/08 16:54:04;;;;;;;20.97;3.20;;;12.60;96.50;;;;;;5063951;28;20403;-71
2022/02/08 16:56:54;;;;;;;17.20;2.72;;;12.50;96.50;;;;;;5046491;28;20438;-69
2022/02/08 16:59:27;;;;;;;27.60;7.53;;;12.60;96.60;;;;;;5064319;28;20434;-67
2022/02/08 17:01:56;;;;;;;21.17;5.22;;;12.50;96.60;;;;;;5063544;28;20410;-68
2022/02/08 17:04:22;;;;;;;26.05;7.72;;;12.50;96.70;;;;;;5064758;28;20497;-69
2022/02/08 17:06:48;;;;;;;22.42;5.20;;;12.00;97.20;;;;;;5064963;28;20194;-71
2022/02/08 17:09:18;;;;;;;15.18;2.70;;;11.70;97.70;;;;;;5066014;28;20225;-68
2022/02/08 17:11:50;;;;;;;14.90;2.78;;;11.50;98.10;;;;;;5047884;28;20190;-73
2022/02/08 17:19:45;;;;;;;14.20;2.63;;;11.10;98.60;;;;;;5064917;28;20526;-70
2022/02/08 17:45:09;;;;;;;22.55;2.95;;;10.90;99.60;;;;;;5069118;28;20197;-68
2022/02/08 17:46:15;;;;;;;18.40;3.38;;;10.90;99.80;;;;;;5067199;28;20210;-68
2022/02/08 17:48:41;;;;;;;13.18;2.13;;;10.90;99.80;;;;;;5068945;28;20190;-70
2022/02/08 17:51:06;;;;;;;17.65;3.10;;;10.90;99.90;;;;;;5069322;28;20216;-69
2022/02/08 17:53:32;;;;;;;20.43;3.03;;;10.90;99.90;;;;;;5051038;28;20395;-70
2022/02/08 17:55:57;;;;;;;18.05;2.85;;;11.40;99.90;;;;;;5065918;28;20418;-69
2022/02/08 17:58:23;;;;;;;17.00;2.80;;;11.70;99.90;;;;;;5067873;28;20899;-71
2022/02/08 18:00:51;;;;;;;16.43;2.87;;;11.90;99.70;;;;;;5068072;28;20419;-69
2022/02/08 18:03:17;;;;;;;17.23;2.87;;;12.00;99.40;;;;;;5050182;28;20415;-69
2022/02/08 18:05:44;;;;;;;16.38;3.00;;;12.10;99.20;;;;;;5050520;28;20775;-70
2022/02/08 18:08:13;;;;;;;19.83;3.15;;;12.10;98.90;;;;;;5063350;28;20425;-68
2022/02/08 18:10:48;;;;;;;18.30;2.65;;;12.20;98.70;;;;;;5065924;28;20918;-69
2022/02/08 18:13:17;;;;;;;15.90;2.88;;;12.20;98.50;;;;;;5063020;28;20515;-69
2022/02/08 18:15:43;;;;;;;16.95;2.70;;;12.30;98.40;;;;;;5064304;28;20426;-68
2022/02/08 18:18:20;;;;;;;17.67;2.50;;;12.30;98.20;;;;;;5067734;28;20395;-71
2022/02/08 18:20:54;;;;;;;15.95;2.30;;;12.30;98.00;;;;;;5067604;28;20415;-70
2022/02/08 18:56:43;;;;;;;12.00;2.28;;;12.60;97.10;;;;;;5062763;28;20422;-71
2022/02/08 19:13:49;;;;;;;11.05;2.38;;;12.50;97.30;;;;;;5065531;28;20395;-67
2022/02/08 19:23:33;;;;;;;15.80;2.60;;;12.50;97.90;;;;;;5048735;28;20798;-69
2022/02/08 19:26:00;;;;;;;11.27;2.67;;;12.50;98.10;;;;;;5066637;28;20403;-70
2022/02/08 19:28:26;;;;;;;17.60;2.90;;;12.50;98.40;;;;;;5065853;28;20510;-70
2022/02/08 19:30:52;;;;;;;16.10;3.10;;;12.40;99.20;;;;;;5064049;28;21034;-70
2022/02/08 19:33:18;;;;;;;14.32;2.90;;;12.30;99.50;;;;;;5066586;28;20457;-69
2022/02/08 19:35:44;;;;;;;14.52;2.55;;;12.20;99.90;;;;;;5048188;28;20434;-70
2022/02/08 19:38:11;;;;;;;15.70;2.50;;;12.10;99.90;;;;;;5065484;28;20424;-69
2022/02/08 19:40:37;;;;;;;12.80;2.90;;;12.00;99.90;;;;;;5066111;28;20415;-70
2022/02/08 19:43:03;;;;;;;18.40;2.70;;;11.90;99.90;;;;;;5065430;28;20400;-68
2022/02/08 19:45:29;;;;;;;14.77;2.60;;;11.80;99.90;;;;;;5048157;28;20399;-69
2022/02/08 19:47:55;;;;;;;17.63;2.80;;;11.80;99.90;;;;;;5065277;28;20417;-71
2022/02/08 19:50:21;;;;;;;14.30;2.33;;;11.70;99.90;;;;;;5065762;28;20410;-69
2022/02/08 19:52:47;;;;;;;20.05;3.28;;;11.70;99.90;;;;;;5065848;28;20415;-68
2022/02/08 19:55:27;;;;;;;17.92;2.58;;;11.70;99.90;;;;;;5065970;28;20433;-69
2022/02/08 19:57:55;;;;;;;19.50;2.78;;;11.70;99.90;;;;;;5065540;28;20399;-69
2022/02/08 20:00:27;;;;;;;11.98;2.50;;;11.60;99.90;;;;;;5064304;28;20411;-69
2022/02/08 20:02:56;;;;;;;13.50;2.65;;;11.60;99.90;;;;;;5065264;28;20745;-70
2022/02/08 20:05:27;;;;;;;16.10;2.75;;;11.60;99.90;;;;;;5065884;28;21560;-69
2022/02/08 20:07:53;;;;;;;15.93;2.25;;;11.60;99.90;;;;;;5065210;28;20421;-70
2022/02/08 20:10:19;;;;;;;16.13;2.65;;;11.60;99.90;;;;;;5064533;28;20479;-68
2022/02/08 20:12:44;;;;;;;15.38;2.40;;;11.50;99.90;;;;;;5065374;28;20492;-70
2022/02/08 20:15:10;;;;;;;15.43;2.73;;;11.50;99.90;;;;;;5043465;28;20411;-69
2022/02/08 20:17:36;;;;;;;18.35;2.60;;;11.50;99.90;;;;;;5063720;28;21048;-69
2022/02/08 20:20:11;;;;;;;16.33;2.70;;;11.40;99.90;;;;;;5064528;28;21047;-69
2022/02/08 20:22:38;;;;;;;17.55;2.95;;;11.40;99.90;;;;;;5047100;28;20415;-68
2022/02/08 20:25:07;;;;;;;17.73;2.80;;;11.30;99.90;;;;;;5064098;28;20419;-71
2022/02/08 20:29:58;;;;;;;18.10;3.20;;;11.30;99.90;;;;;;5065257;28;20408;-67
2022/02/08 20:32:24;;;;;;;16.87;3.03;;;11.30;99.90;;;;;;5065549;28;20457;-67
2022/02/08 20:34:50;;;;;;;14.68;2.72;;;11.30;99.90;;;;;;5065772;28;20433;-68
2022/02/08 20:37:16;;;;;;;17.47;3.07;;;11.30;99.90;;;;;;5065854;28;20420;-72
2022/02/08 20:39:42;;;;;;;18.60;3.00;;;11.20;99.90;;;;;;5064679;28;20423;-67
2022/02/08 20:42:07;;;;;;;18.88;2.70;;;11.20;99.90;;;;;;5065794;28;20779;-68
2022/02/08 20:44:37;;;;;;;19.20;2.97;;;11.20;99.90;;;;;;5049394;28;20410;-68